sensor_id;sensor_type;location;lat;lon;timestamp;temperature;humidity
29417;DHT22;28421;51.030;4.006;2022-07-29T00:00:00;18.10;99.90
29417;DHT22;28421;51.030;4.006;2022-07-29T00:02:27;18.00;99.90
29417;DHT22;28421;51.030;4.006;2022-07-29T00:04:53;18.00;99.90
29417;DHT22;28421;51.030;4.006;2022-07-29T00:07:20;18.10;99.90
29417;DHT22;28421;51.030;4.006;2022-07-29T00:09:45;18.30;99.90
29417;DHT22;28421;51.030;4.006;2022-07-29T00:12:11;18.20;99.90
29417;DHT22;28421;51.030;4.006;2022-07-29T00:14:37;18.30;99.90
29417;DHT22;28421;51.030;4.006;2022-07-29T00:17:02;18.20;99.90
29417;DHT22;28421;51.030;4.006;2022-07-29T00:19:28;18.20;99.90
29417;DHT22;28421;51.030;4.006;2022-07-29T00:21:54;18.20;99.90
29417;DHT22;28421;51.030;4.006;2022-07-29T00:24:19;18.30;99.90
29417;DHT22;28421;51.030;4.006;2022-07-29T00:26:45;18.10;99.90
29417;DHT22;28421;51.030;4.006;2022-07-29T00:29:11;18.10;99.90
29417;DHT22;28421;51.030;4.006;2022-07-29T00:31:37;18.20;99.90
29417;DHT22;28421;51.030;4.006;2022-07-29T00:34:02;18.10;99.90
29417;DHT22;28421;51.030;4.006;2022-07-29T00:36:28;18.10;99.90
29417;DHT22;28421;51.030;4.006;2022-07-29T00:38:54;18.20;99.90
29417;DHT22;28421;51.030;4.006;2022-07-29T00:41:20;18.20;99.90
29417;DHT22;28421;51.030;4.006;2022-07-29T00:43:46;18.30;99.90
29417;DHT22;28421;51.030;4.006;2022-07-29T00:46:11;18.40;99.90
29417;DHT22;28421;51.030;4.006;2022-07-29T00:48:38;18.40;99.90
29417;DHT22;28421;51.030;4.006;2022-07-29T00:51:05;18.30;99.90
29417;DHT22;28421;51.030;4.006;2022-07-29T00:53:31;18.20;99.90
29417;DHT22;28421;51.030;4.006;2022-07-29T00:55:58;18.20;99.90
29417;DHT22;28421;51.030;4.006;2022-07-29T00:58:24;18.10;99.90
29417;DHT22;28421;51.030;4.006;2022-07-29T01:00:52;18.20;99.90
29417;DHT22;28421;51.030;4.006;2022-07-29T01:03:18;18.20;99.90
29417;DHT22;28421;51.030;4.006;2022-07-29T01:05:44;18.30;99.90
29417;DHT22;28421;51.030;4.006;2022-07-29T01:08:12;18.20;99.90
29417;DHT22;28421;51.030;4.006;2022-07-29T01:10:39;18.00;99.90
29417;DHT22;28421;51.030;4.006;2022-07-29T01:13:07;17.80;99.90
29417;DHT22;28421;51.030;4.006;2022-07-29T01:15:40;17.60;99.90
29417;DHT22;28421;51.030;4.006;2022-07-29T01:18:19;17.60;99.90
29417;DHT22;28421;51.030;4.006;2022-07-29T01:21:04;17.60;99.90
29417;DHT22;28421;51.030;4.006;2022-07-29T01:31:48;17.80;99.90
29417;DHT22;28421;51.030;4.006;2022-07-29T01:34:21;17.60;99.90
29417;DHT22;28421;51.030;4.006;2022-07-29T01:36:54;17.50;99.90
29417;DHT22;28421;51.030;4.006;2022-07-29T01:39:30;17.40;99.90
29417;DHT22;28421;51.030;4.006;2022-07-29T01:44:37;17.30;99.90
29417;DHT22;28421;51.030;4.006;2022-07-29T01:47:10;17.20;99.90
29417;DHT22;28421;51.030;4.006;2022-07-29T01:49:42;17.20;99.90
29417;DHT22;28421;51.030;4.006;2022-07-29T01:52:19;17.20;99.90
29417;DHT22;28421;51.030;4.006;2022-07-29T01:54:51;16.80;99.90
29417;DHT22;28421;51.030;4.006;2022-07-29T01:57:20;17.20;99.90
29417;DHT22;28421;51.030;4.006;2022-07-29T01:59:47;16.80;99.90
29417;DHT22;28421;51.030;4.006;2022-07-29T02:02:15;16.80;99.90
29417;DHT22;28421;51.030;4.006;2022-07-29T02:04:41;16.80;99.90
29417;DHT22;28421;51.030;4.006;2022-07-29T02:07:11;16.50;99.90
29417;DHT22;28421;51.030;4.006;2022-07-29T02:09:39;16.70;99.90
29417;DHT22;28421;51.030;4.006;2022-07-29T02:12:07;16.70;99.90
29417;DHT22;28421;51.030;4.006;2022-07-29T02:14:38;16.70;99.90
29417;DHT22;28421;51.030;4.006;2022-07-29T02:17:05;16.40;99.90
29417;DHT22;28421;51.030;4.006;2022-07-29T02:19:33;16.40;99.90
29417;DHT22;28421;51.030;4.006;2022-07-29T02:22:00;16.50;99.90
29417;DHT22;28421;51.030;4.006;2022-07-29T02:24:27;16.50;99.90
29417;DHT22;28421;51.030;4.006;2022-07-29T02:26:55;16.80;99.90
29417;DHT22;28421;51.030;4.006;2022-07-29T02:29:24;16.10;99.90
29417;DHT22;28421;51.030;4.006;2022-07-29T02:31:51;16.40;99.90
29417;DHT22;28421;51.030;4.006;2022-07-29T02:34:19;16.20;99.90
29417;DHT22;28421;51.030;4.006;2022-07-29T02:36:46;16.20;99.90
29417;DHT22;28421;51.030;4.006;2022-07-29T02:39:14;15.90;99.90
29417;DHT22;28421;51.030;4.006;2022-07-29T02:41:46;15.90;99.90
29417;DHT22;28421;51.030;4.006;2022-07-29T02:44:16;15.90;99.90
29417;DHT22;28421;51.030;4.006;2022-07-29T02:46:54;15.40;99.90
29417;DHT22;28421;51.030;4.006;2022-07-29T02:52:17;15.80;99.90
29417;DHT22;28421;51.030;4.006;2022-07-29T02:55:04;16.20;99.90
29417;DHT22;28421;51.030;4.006;2022-07-29T02:57:43;16.30;99.90
29417;DHT22;28421;51.030;4.006;2022-07-29T03:00:10;15.70;99.90
29417;DHT22;28421;51.030;4.006;2022-07-29T03:02:39;16.00;99.90
29417;DHT22;28421;51.030;4.006;2022-07-29T03:05:08;15.50;99.90
29417;DHT22;28421;51.030;4.006;2022-07-29T03:07:35;15.90;99.90
29417;DHT22;28421;51.030;4.006;2022-07-29T03:10:02;16.10;99.90
29417;DHT22;28421;51.030;4.006;2022-07-29T03:12:28;15.80;99.90
29417;DHT22;28421;51.030;4.006;2022-07-29T03:14:56;15.80;99.90
29417;DHT22;28421;51.030;4.006;2022-07-29T03:17:22;15.40;99.90
29417;DHT22;28421;51.030;4.006;2022-07-29T03:19:48;15.60;99.90
29417;DHT22;28421;51.030;4.006;2022-07-29T03:22:14;15.70;99.90
29417;DHT22;28421;51.030;4.006;2022-07-29T03:24:40;15.90;99.90
29417;DHT22;28421;51.030;4.006;2022-07-29T03:27:06;15.30;99.90
29417;DHT22;28421;51.030;4.006;2022-07-29T03:29:32;15.70;99.90
29417;DHT22;28421;51.030;4.006;2022-07-29T03:31:58;15.30;99.90
29417;DHT22;28421;51.030;4.006;2022-07-29T03:34:24;15.50;99.90
29417;DHT22;28421;51.030;4.006;2022-07-29T03:36:50;15.60;99.90
29417;DHT22;28421;51.030;4.006;2022-07-29T03:39:20;15.70;99.90
29417;DHT22;28421;51.030;4.006;2022-07-29T03:41:49;15.50;99.90
29417;DHT22;28421;51.030;4.006;2022-07-29T03:44:16;15.40;99.90
29417;DHT22;28421;51.030;4.006;2022-07-29T03:46:43;15.10;99.90
29417;DHT22;28421;51.030;4.006;2022-07-29T03:49:11;15.20;99.90
29417;DHT22;28421;51.030;4.006;2022-07-29T03:51:38;15.20;99.90
29417;DHT22;28421;51.030;4.006;2022-07-29T03:54:05;15.10;99.90
29417;DHT22;28421;51.030;4.006;2022-07-29T03:56:32;15.20;99.90
29417;DHT22;28421;51.030;4.006;2022-07-29T03:59:01;15.00;99.90
29417;DHT22;28421;51.030;4.006;2022-07-29T04:01:28;15.20;99.90
29417;DHT22;28421;51.030;4.006;2022-07-29T04:03:55;15.30;99.90
29417;DHT22;28421;51.030;4.006;2022-07-29T04:06:20;15.40;99.90
29417;DHT22;28421;51.030;4.006;2022-07-29T04:08:46;15.10;99.90
29417;DHT22;28421;51.030;4.006;2022-07-29T04:11:12;15.20;99.90
29417;DHT22;28421;51.030;4.006;2022-07-29T04:13:38;15.10;99.90
29417;DHT22;28421;51.030;4.006;2022-07-29T04:16:04;15.10;99.90
29417;DHT22;28421;51.030;4.006;2022-07-29T04:20:56;14.60;99.90
29417;DHT22;28421;51.030;4.006;2022-07-29T04:23:24;14.70;99.90
29417;DHT22;28421;51.030;4.006;2022-07-29T04:33:08;14.30;99.90
29417;DHT22;28421;51.030;4.006;2022-07-29T04:35:36;14.80;99.90
29417;DHT22;28421;51.030;4.006;2022-07-29T04:38:01;14.70;99.90
29417;DHT22;28421;51.030;4.006;2022-07-29T04:42:54;14.60;99.90
29417;DHT22;28421;51.030;4.006;2022-07-29T04:47:46;15.10;99.90
29417;DHT22;28421;51.030;4.006;2022-07-29T04:50:12;14.70;99.90
29417;DHT22;28421;51.030;4.006;2022-07-29T04:52:40;14.80;99.90
29417;DHT22;28421;51.030;4.006;2022-07-29T04:55:06;14.90;99.90
29417;DHT22;28421;51.030;4.006;2022-07-29T04:57:32;14.60;99.90
29417;DHT22;28421;51.030;4.006;2022-07-29T04:59:58;15.10;99.90
29417;DHT22;28421;51.030;4.006;2022-07-29T05:02:24;14.80;99.90
29417;DHT22;28421;51.030;4.006;2022-07-29T05:04:49;15.50;99.90
29417;DHT22;28421;51.030;4.006;2022-07-29T05:07:15;15.20;99.90
29417;DHT22;28421;51.030;4.006;2022-07-29T05:12:07;15.60;99.90
29417;DHT22;28421;51.030;4.006;2022-07-29T05:14:33;15.70;99.90
29417;DHT22;28421;51.030;4.006;2022-07-29T05:16:59;15.20;99.90
29417;DHT22;28421;51.030;4.006;2022-07-29T05:19:24;15.60;99.90
29417;DHT22;28421;51.030;4.006;2022-07-29T05:21:50;15.70;99.90
29417;DHT22;28421;51.030;4.006;2022-07-29T05:24:16;15.70;99.90
29417;DHT22;28421;51.030;4.006;2022-07-29T05:26:41;15.90;99.90
29417;DHT22;28421;51.030;4.006;2022-07-29T05:29:08;15.90;99.90
29417;DHT22;28421;51.030;4.006;2022-07-29T05:31:33;15.90;99.90
29417;DHT22;28421;51.030;4.006;2022-07-29T05:33:59;15.90;99.90
29417;DHT22;28421;51.030;4.006;2022-07-29T05:36:25;16.00;99.90
29417;DHT22;28421;51.030;4.006;2022-07-29T05:38:51;16.10;99.90
29417;DHT22;28421;51.030;4.006;2022-07-29T05:41:18;16.10;99.90
29417;DHT22;28421;51.030;4.006;2022-07-29T05:43:44;16.10;99.90
29417;DHT22;28421;51.030;4.006;2022-07-29T05:46:09;16.20;99.90
29417;DHT22;28421;51.030;4.006;2022-07-29T05:48:35;16.20;99.90
29417;DHT22;28421;51.030;4.006;2022-07-29T05:51:01;16.30;99.90
29417;DHT22;28421;51.030;4.006;2022-07-29T05:53:27;16.20;99.90
29417;DHT22;28421;51.030;4.006;2022-07-29T05:55:53;16.30;99.90
29417;DHT22;28421;51.030;4.006;2022-07-29T05:58:19;16.30;99.90
29417;DHT22;28421;51.030;4.006;2022-07-29T06:00:45;17.30;99.90
29417;DHT22;28421;51.030;4.006;2022-07-29T06:03:11;16.70;99.90
29417;DHT22;28421;51.030;4.006;2022-07-29T06:05:36;16.50;99.90
29417;DHT22;28421;51.030;4.006;2022-07-29T06:08:02;16.70;99.90
29417;DHT22;28421;51.030;4.006;2022-07-29T06:10:28;16.60;99.90
29417;DHT22;28421;51.030;4.006;2022-07-29T06:12:54;16.60;99.90
29417;DHT22;28421;51.030;4.006;2022-07-29T06:15:20;16.60;99.90
29417;DHT22;28421;51.030;4.006;2022-07-29T06:17:46;16.70;99.90
29417;DHT22;28421;51.030;4.006;2022-07-29T06:20:11;16.70;99.90
29417;DHT22;28421;51.030;4.006;2022-07-29T06:22:37;16.70;99.90
29417;DHT22;28421;51.030;4.006;2022-07-29T06:25:03;16.80;99.90
29417;DHT22;28421;51.030;4.006;2022-07-29T06:27:29;17.00;99.90
29417;DHT22;28421;51.030;4.006;2022-07-29T06:29:56;17.00;99.90
29417;DHT22;28421;51.030;4.006;2022-07-29T06:32:21;16.80;99.90
29417;DHT22;28421;51.030;4.006;2022-07-29T06:34:47;16.80;99.90
29417;DHT22;28421;51.030;4.006;2022-07-29T06:39:39;17.30;99.90
29417;DHT22;28421;51.030;4.006;2022-07-29T06:44:32;17.50;99.90
29417;DHT22;28421;51.030;4.006;2022-07-29T06:47:00;17.40;99.90
29417;DHT22;28421;51.030;4.006;2022-07-29T06:49:26;17.70;99.90
29417;DHT22;28421;51.030;4.006;2022-07-29T06:51:53;18.20;99.90
29417;DHT22;28421;51.030;4.006;2022-07-29T06:54:19;18.20;99.90
29417;DHT22;28421;51.030;4.006;2022-07-29T06:56:45;18.30;99.90
29417;DHT22;28421;51.030;4.006;2022-07-29T06:59:12;18.30;99.90
29417;DHT22;28421;51.030;4.006;2022-07-29T07:01:42;18.60;99.90
29417;DHT22;28421;51.030;4.006;2022-07-29T07:04:09;18.60;99.90
29417;DHT22;28421;51.030;4.006;2022-07-29T07:06:35;18.60;99.90
29417;DHT22;28421;51.030;4.006;2022-07-29T07:11:27;18.80;99.90
29417;DHT22;28421;51.030;4.006;2022-07-29T07:13:53;19.00;99.90
29417;DHT22;28421;51.030;4.006;2022-07-29T07:18:45;19.30;99.90
29417;DHT22;28421;51.030;4.006;2022-07-29T07:21:11;19.30;99.90
29417;DHT22;28421;51.030;4.006;2022-07-29T07:23:36;19.50;99.90
29417;DHT22;28421;51.030;4.006;2022-07-29T07:26:02;19.70;99.90
29417;DHT22;28421;51.030;4.006;2022-07-29T07:28:28;20.20;99.90
29417;DHT22;28421;51.030;4.006;2022-07-29T07:30:54;20.10;99.90
29417;DHT22;28421;51.030;4.006;2022-07-29T07:33:20;20.20;99.90
29417;DHT22;28421;51.030;4.006;2022-07-29T07:35:46;19.90;99.90
29417;DHT22;28421;51.030;4.006;2022-07-29T07:38:12;19.70;99.90
29417;DHT22;28421;51.030;4.006;2022-07-29T07:40:38;19.90;99.90
29417;DHT22;28421;51.030;4.006;2022-07-29T07:43:03;19.90;99.90
29417;DHT22;28421;51.030;4.006;2022-07-29T07:45:29;20.00;99.90
29417;DHT22;28421;51.030;4.006;2022-07-29T07:47:57;20.10;99.90
29417;DHT22;28421;51.030;4.006;2022-07-29T07:50:23;20.00;99.90
29417;DHT22;28421;51.030;4.006;2022-07-29T07:52:51;19.80;99.90
29417;DHT22;28421;51.030;4.006;2022-07-29T07:55:18;19.90;99.90
29417;DHT22;28421;51.030;4.006;2022-07-29T07:57:44;19.70;99.90
29417;DHT22;28421;51.030;4.006;2022-07-29T08:00:17;19.70;99.90
29417;DHT22;28421;51.030;4.006;2022-07-29T08:02:43;19.80;99.90
29417;DHT22;28421;51.030;4.006;2022-07-29T08:05:11;19.70;99.90
29417;DHT22;28421;51.030;4.006;2022-07-29T08:07:38;19.80;99.90
29417;DHT22;28421;51.030;4.006;2022-07-29T08:10:05;19.80;99.90
29417;DHT22;28421;51.030;4.006;2022-07-29T08:12:31;19.80;99.90
29417;DHT22;28421;51.030;4.006;2022-07-29T08:14:56;19.90;99.90
29417;DHT22;28421;51.030;4.006;2022-07-29T08:17:22;20.10;99.90
29417;DHT22;28421;51.030;4.006;2022-07-29T08:19:48;20.50;99.90
29417;DHT22;28421;51.030;4.006;2022-07-29T08:22:15;20.30;99.90
29417;DHT22;28421;51.030;4.006;2022-07-29T08:24:41;20.50;99.90
29417;DHT22;28421;51.030;4.006;2022-07-29T08:27:12;20.80;99.90
29417;DHT22;28421;51.030;4.006;2022-07-29T08:29:38;20.90;99.90
29417;DHT22;28421;51.030;4.006;2022-07-29T08:32:04;20.90;99.90
29417;DHT22;28421;51.030;4.006;2022-07-29T08:34:30;21.10;99.90
29417;DHT22;28421;51.030;4.006;2022-07-29T08:36:56;21.10;99.90
29417;DHT22;28421;51.030;4.006;2022-07-29T08:39:22;20.80;99.90
29417;DHT22;28421;51.030;4.006;2022-07-29T08:41:49;21.10;99.90
29417;DHT22;28421;51.030;4.006;2022-07-29T08:44:17;21.30;99.90
29417;DHT22;28421;51.030;4.006;2022-07-29T08:46:43;21.50;99.90
29417;DHT22;28421;51.030;4.006;2022-07-29T08:49:09;21.80;99.90
29417;DHT22;28421;51.030;4.006;2022-07-29T08:51:36;21.60;99.90
29417;DHT22;28421;51.030;4.006;2022-07-29T08:54:05;21.70;99.90
29417;DHT22;28421;51.030;4.006;2022-07-29T08:56:31;21.50;99.90
29417;DHT22;28421;51.030;4.006;2022-07-29T08:58:58;21.50;99.90
29417;DHT22;28421;51.030;4.006;2022-07-29T09:01:26;21.60;99.90
29417;DHT22;28421;51.030;4.006;2022-07-29T09:03:55;21.90;99.90
29417;DHT22;28421;51.030;4.006;2022-07-29T09:06:22;22.00;99.90
29417;DHT22;28421;51.030;4.006;2022-07-29T09:08:49;22.10;99.90
29417;DHT22;28421;51.030;4.006;2022-07-29T09:11:15;22.00;99.90
29417;DHT22;28421;51.030;4.006;2022-07-29T09:13:41;22.20;99.90
29417;DHT22;28421;51.030;4.006;2022-07-29T09:16:06;22.40;99.90
29417;DHT22;28421;51.030;4.006;2022-07-29T09:18:39;22.40;99.90
29417;DHT22;28421;51.030;4.006;2022-07-29T09:21:07;22.50;99.90
29417;DHT22;28421;51.030;4.006;2022-07-29T09:24:17;22.40;99.90
29417;DHT22;28421;51.030;4.006;2022-07-29T09:26:44;22.80;99.90
29417;DHT22;28421;51.030;4.006;2022-07-29T09:29:12;23.10;99.90
29417;DHT22;28421;51.030;4.006;2022-07-29T09:31:40;23.00;99.90
29417;DHT22;28421;51.030;4.006;2022-07-29T09:34:07;22.50;99.90
29417;DHT22;28421;51.030;4.006;2022-07-29T09:39:09;22.80;99.90
29417;DHT22;28421;51.030;4.006;2022-07-29T09:42:05;23.00;99.90
29417;DHT22;28421;51.030;4.006;2022-07-29T09:47:06;23.20;99.90
29417;DHT22;28421;51.030;4.006;2022-07-29T09:49:51;23.30;99.30
29417;DHT22;28421;51.030;4.006;2022-07-29T09:52:17;23.20;99.30
29417;DHT22;28421;51.030;4.006;2022-07-29T09:54:42;23.30;99.80
29417;DHT22;28421;51.030;4.006;2022-07-29T09:57:09;23.80;99.90
29417;DHT22;28421;51.030;4.006;2022-07-29T10:00:07;23.70;99.20
29417;DHT22;28421;51.030;4.006;2022-07-29T10:02:42;23.90;98.30
29417;DHT22;28421;51.030;4.006;2022-07-29T10:07:54;23.90;97.90
29417;DHT22;28421;51.030;4.006;2022-07-29T10:10:27;24.00;97.30
29417;DHT22;28421;51.030;4.006;2022-07-29T10:12:57;23.90;98.00
29417;DHT22;28421;51.030;4.006;2022-07-29T10:15:24;23.80;97.50
29417;DHT22;28421;51.030;4.006;2022-07-29T10:17:55;23.50;97.40
29417;DHT22;28421;51.030;4.006;2022-07-29T10:20:22;23.90;97.90
29417;DHT22;28421;51.030;4.006;2022-07-29T10:22:50;24.20;97.10
29417;DHT22;28421;51.030;4.006;2022-07-29T10:25:16;24.60;97.10
29417;DHT22;28421;51.030;4.006;2022-07-29T10:27:43;24.60;95.90
29417;DHT22;28421;51.030;4.006;2022-07-29T10:30:13;24.50;95.60
29417;DHT22;28421;51.030;4.006;2022-07-29T10:38:55;24.80;99.90
29417;DHT22;28421;51.030;4.006;2022-07-29T10:44:14;25.00;99.90
29417;DHT22;28421;51.030;4.006;2022-07-29T10:46:41;24.90;94.80
29417;DHT22;28421;51.030;4.006;2022-07-29T10:49:18;24.90;95.10
29417;DHT22;28421;51.030;4.006;2022-07-29T10:54:36;24.90;94.30
29417;DHT22;28421;51.030;4.006;2022-07-29T10:57:25;24.80;93.30
29417;DHT22;28421;51.030;4.006;2022-07-29T11:04:59;24.90;99.90
29417;DHT22;28421;51.030;4.006;2022-07-29T11:07:25;24.70;94.10
29417;DHT22;28421;51.030;4.006;2022-07-29T11:15:05;25.40;99.90
29417;DHT22;28421;51.030;4.006;2022-07-29T11:20:37;26.10;99.90
29417;DHT22;28421;51.030;4.006;2022-07-29T11:23:25;25.80;93.70
29417;DHT22;28421;51.030;4.006;2022-07-29T11:26:20;25.60;99.90
29417;DHT22;28421;51.030;4.006;2022-07-29T11:31:39;26.10;92.90
29417;DHT22;28421;51.030;4.006;2022-07-29T11:39:33;26.30;99.90
29417;DHT22;28421;51.030;4.006;2022-07-29T11:45:08;25.90;99.80
29417;DHT22;28421;51.030;4.006;2022-07-29T11:47:41;26.30;92.50
29417;DHT22;28421;51.030;4.006;2022-07-29T11:50:14;26.40;92.20
29417;DHT22;28421;51.030;4.006;2022-07-29T11:52:45;26.10;99.90
29417;DHT22;28421;51.030;4.006;2022-07-29T11:55:19;26.50;99.80
29417;DHT22;28421;51.030;4.006;2022-07-29T11:57:53;26.30;91.80
29417;DHT22;28421;51.030;4.006;2022-07-29T12:00:35;26.10;99.50
29417;DHT22;28421;51.030;4.006;2022-07-29T12:03:02;25.70;99.70
29417;DHT22;28421;51.030;4.006;2022-07-29T12:05:33;25.90;99.60
29417;DHT22;28421;51.030;4.006;2022-07-29T12:10:32;26.20;99.90
29417;DHT22;28421;51.030;4.006;2022-07-29T12:15:24;26.30;96.90
29417;DHT22;28421;51.030;4.006;2022-07-29T12:17:50;26.30;99.60
29417;DHT22;28421;51.030;4.006;2022-07-29T12:20:24;26.00;93.60
29417;DHT22;28421;51.030;4.006;2022-07-29T12:25:19;26.30;99.60
29417;DHT22;28421;51.030;4.006;2022-07-29T12:27:45;26.00;99.20
29417;DHT22;28421;51.030;4.006;2022-07-29T12:30:15;26.20;91.30
29417;DHT22;28421;51.030;4.006;2022-07-29T12:32:46;26.70;91.10
29417;DHT22;28421;51.030;4.006;2022-07-29T12:35:14;26.40;91.10
29417;DHT22;28421;51.030;4.006;2022-07-29T12:37:42;26.60;99.30
29417;DHT22;28421;51.030;4.006;2022-07-29T12:40:10;27.00;90.80
29417;DHT22;28421;51.030;4.006;2022-07-29T12:42:36;26.80;90.90
29417;DHT22;28421;51.030;4.006;2022-07-29T12:45:03;26.30;99.60
29417;DHT22;28421;51.030;4.006;2022-07-29T12:47:30;27.10;97.00
29417;DHT22;28421;51.030;4.006;2022-07-29T12:50:15;27.30;99.20
29417;DHT22;28421;51.030;4.006;2022-07-29T12:52:44;27.30;90.70
29417;DHT22;28421;51.030;4.006;2022-07-29T12:55:11;27.40;89.60
29417;DHT22;28421;51.030;4.006;2022-07-29T12:57:46;27.40;98.50
29417;DHT22;28421;51.030;4.006;2022-07-29T13:02:40;27.20;90.30
29417;DHT22;28421;51.030;4.006;2022-07-29T13:05:08;27.60;90.20
29417;DHT22;28421;51.030;4.006;2022-07-29T13:07:35;28.10;89.60
29417;DHT22;28421;51.030;4.006;2022-07-29T13:10:19;28.40;89.90
29417;DHT22;28421;51.030;4.006;2022-07-29T13:13:04;28.20;89.80
29417;DHT22;28421;51.030;4.006;2022-07-29T13:15:31;28.00;89.00
29417;DHT22;28421;51.030;4.006;2022-07-29T13:17:57;27.70;89.50
29417;DHT22;28421;51.030;4.006;2022-07-29T13:20:27;27.50;89.70
29417;DHT22;28421;51.030;4.006;2022-07-29T13:22:59;27.40;89.90
29417;DHT22;28421;51.030;4.006;2022-07-29T13:25:28;27.10;89.80
29417;DHT22;28421;51.030;4.006;2022-07-29T13:27:54;27.30;90.80
29417;DHT22;28421;51.030;4.006;2022-07-29T13:30:21;27.10;90.40
29417;DHT22;28421;51.030;4.006;2022-07-29T13:32:47;26.30;99.20
29417;DHT22;28421;51.030;4.006;2022-07-29T13:35:13;26.60;99.90
29417;DHT22;28421;51.030;4.006;2022-07-29T13:37:39;26.20;90.40
29417;DHT22;28421;51.030;4.006;2022-07-29T13:40:06;26.10;99.10
29417;DHT22;28421;51.030;4.006;2022-07-29T13:42:32;26.40;99.00
29417;DHT22;28421;51.030;4.006;2022-07-29T13:44:59;26.40;99.40
29417;DHT22;28421;51.030;4.006;2022-07-29T13:52:19;26.90;89.70
29417;DHT22;28421;51.030;4.006;2022-07-29T13:54:45;26.70;99.40
29417;DHT22;28421;51.030;4.006;2022-07-29T13:57:11;27.10;97.90
29417;DHT22;28421;51.030;4.006;2022-07-29T14:04:30;27.20;98.30
29417;DHT22;28421;51.030;4.006;2022-07-29T14:06:55;27.30;99.00
29417;DHT22;28421;51.030;4.006;2022-07-29T14:09:21;27.00;98.40
29417;DHT22;28421;51.030;4.006;2022-07-29T14:11:47;27.30;90.20
29417;DHT22;28421;51.030;4.006;2022-07-29T14:14:15;27.90;88.10
29417;DHT22;28421;51.030;4.006;2022-07-29T14:16:40;27.50;88.40
29417;DHT22;28421;51.030;4.006;2022-07-29T14:19:06;27.20;98.10
29417;DHT22;28421;51.030;4.006;2022-07-29T14:21:32;27.30;98.10
29417;DHT22;28421;51.030;4.006;2022-07-29T14:28:50;26.30;94.00
29417;DHT22;28421;51.030;4.006;2022-07-29T14:36:08;26.50;94.30
29417;DHT22;28421;51.030;4.006;2022-07-29T14:38:35;26.90;98.30
29417;DHT22;28421;51.030;4.006;2022-07-29T14:41:03;27.30;98.10
29417;DHT22;28421;51.030;4.006;2022-07-29T14:43:28;26.90;97.70
29417;DHT22;28421;51.030;4.006;2022-07-29T14:45:54;27.40;98.00
29417;DHT22;28421;51.030;4.006;2022-07-29T14:53:12;28.00;98.10
29417;DHT22;28421;51.030;4.006;2022-07-29T14:55:39;27.70;97.40
29417;DHT22;28421;51.030;4.006;2022-07-29T14:58:04;27.30;97.40
29417;DHT22;28421;51.030;4.006;2022-07-29T15:00:30;27.30;98.20
29417;DHT22;28421;51.030;4.006;2022-07-29T15:02:58;27.30;91.70
29417;DHT22;28421;51.030;4.006;2022-07-29T15:05:25;27.70;97.80
29417;DHT22;28421;51.030;4.006;2022-07-29T15:07:51;27.60;88.50
29417;DHT22;28421;51.030;4.006;2022-07-29T15:10:16;27.40;88.30
29417;DHT22;28421;51.030;4.006;2022-07-29T15:12:42;27.30;96.40
29417;DHT22;28421;51.030;4.006;2022-07-29T15:15:08;27.10;97.90
29417;DHT22;28421;51.030;4.006;2022-07-29T15:20:00;26.70;98.30
29417;DHT22;28421;51.030;4.006;2022-07-29T15:24:52;26.50;97.90
29417;DHT22;28421;51.030;4.006;2022-07-29T15:27:18;26.00;97.30
29417;DHT22;28421;51.030;4.006;2022-07-29T15:29:44;26.10;90.20
29417;DHT22;28421;51.030;4.006;2022-07-29T15:32:10;26.20;91.00
29417;DHT22;28421;51.030;4.006;2022-07-29T15:34:37;26.20;90.50
29417;DHT22;28421;51.030;4.006;2022-07-29T15:37:06;26.10;90.90
29417;DHT22;28421;51.030;4.006;2022-07-29T15:39:32;26.20;91.30
29417;DHT22;28421;51.030;4.006;2022-07-29T15:41:58;26.30;91.30
29417;DHT22;28421;51.030;4.006;2022-07-29T15:44:27;26.30;91.30
29417;DHT22;28421;51.030;4.006;2022-07-29T15:46:53;26.30;90.90
29417;DHT22;28421;51.030;4.006;2022-07-29T15:49:38;26.30;91.10
29417;DHT22;28421;51.030;4.006;2022-07-29T15:52:06;26.50;90.30
29417;DHT22;28421;51.030;4.006;2022-07-29T15:54:34;26.50;90.50
29417;DHT22;28421;51.030;4.006;2022-07-29T15:57:00;26.40;90.70
29417;DHT22;28421;51.030;4.006;2022-07-29T15:59:26;26.00;98.50
29417;DHT22;28421;51.030;4.006;2022-07-29T16:04:18;26.40;90.30
29417;DHT22;28421;51.030;4.006;2022-07-29T16:06:45;26.90;98.70
29417;DHT22;28421;51.030;4.006;2022-07-29T16:09:12;26.70;90.40
29417;DHT22;28421;51.030;4.006;2022-07-29T16:11:37;26.00;99.60
29417;DHT22;28421;51.030;4.006;2022-07-29T16:14:03;26.00;99.40
29417;DHT22;28421;51.030;4.006;2022-07-29T16:18:55;27.10;95.30
29417;DHT22;28421;51.030;4.006;2022-07-29T16:23:48;27.30;99.90
29417;DHT22;28421;51.030;4.006;2022-07-29T16:26:13;27.10;99.60
29417;DHT22;28421;51.030;4.006;2022-07-29T16:28:39;26.60;99.60
29417;DHT22;28421;51.030;4.006;2022-07-29T16:31:05;26.30;99.90
29417;DHT22;28421;51.030;4.006;2022-07-29T16:33:31;26.10;91.30
29417;DHT22;28421;51.030;4.006;2022-07-29T16:35:57;26.10;91.70
29417;DHT22;28421;51.030;4.006;2022-07-29T16:38:22;26.30;91.70
29417;DHT22;28421;51.030;4.006;2022-07-29T16:40:48;26.40;99.40
29417;DHT22;28421;51.030;4.006;2022-07-29T16:43:14;26.00;99.90
29417;DHT22;28421;51.030;4.006;2022-07-29T16:45:40;26.00;99.90
29417;DHT22;28421;51.030;4.006;2022-07-29T16:48:05;25.80;92.10
29417;DHT22;28421;51.030;4.006;2022-07-29T16:50:31;25.70;99.90
29417;DHT22;28421;51.030;4.006;2022-07-29T16:55:23;25.80;99.90
29417;DHT22;28421;51.030;4.006;2022-07-29T16:57:50;25.10;99.10
29417;DHT22;28421;51.030;4.006;2022-07-29T17:00:18;24.90;99.90
29417;DHT22;28421;51.030;4.006;2022-07-29T17:02:44;24.80;99.90
29417;DHT22;28421;51.030;4.006;2022-07-29T17:05:10;25.20;99.90
29417;DHT22;28421;51.030;4.006;2022-07-29T17:07:37;24.80;99.90
29417;DHT22;28421;51.030;4.006;2022-07-29T17:10:03;24.60;99.90
29417;DHT22;28421;51.030;4.006;2022-07-29T17:12:30;24.60;92.30
29417;DHT22;28421;51.030;4.006;2022-07-29T17:17:23;25.00;99.90
29417;DHT22;28421;51.030;4.006;2022-07-29T17:19:48;24.80;99.70
29417;DHT22;28421;51.030;4.006;2022-07-29T17:22:14;25.00;99.70
29417;DHT22;28421;51.030;4.006;2022-07-29T17:24:40;24.80;99.90
29417;DHT22;28421;51.030;4.006;2022-07-29T17:29:32;24.40;99.90
29417;DHT22;28421;51.030;4.006;2022-07-29T17:31:59;24.00;99.40
29417;DHT22;28421;51.030;4.006;2022-07-29T17:34:25;24.40;92.20
29417;DHT22;28421;51.030;4.006;2022-07-29T17:36:50;24.50;92.30
29417;DHT22;28421;51.030;4.006;2022-07-29T17:39:16;24.10;99.50
29417;DHT22;28421;51.030;4.006;2022-07-29T17:41:42;24.30;92.00
29417;DHT22;28421;51.030;4.006;2022-07-29T17:44:09;24.20;92.40
29417;DHT22;28421;51.030;4.006;2022-07-29T17:46:35;24.10;92.90
29417;DHT22;28421;51.030;4.006;2022-07-29T17:49:01;24.20;92.60
29417;DHT22;28421;51.030;4.006;2022-07-29T17:51:27;24.30;92.60